sensor_id;sensor_type;location;lat;lon;timestamp;temperature;humidity
11304;DHT22;5707;49.588;12.148;2022-12-10T00:00:42;0.00;99.90
11304;DHT22;5707;49.588;12.148;2022-12-10T00:03:07;0.00;99.90
11304;DHT22;5707;49.588;12.148;2022-12-10T00:05:34;0.00;99.90
11304;DHT22;5707;49.588;12.148;2022-12-10T00:08:00;0.00;99.90
11304;DHT22;5707;49.588;12.148;2022-12-10T00:10:25;-0.10;99.90
11304;DHT22;5707;49.588;12.148;2022-12-10T00:12:51;-0.10;99.90
11304;DHT22;5707;49.588;12.148;2022-12-10T00:15:17;-0.10;99.90
11304;DHT22;5707;49.588;12.148;2022-12-10T00:17:42;-0.10;99.90
11304;DHT22;5707;49.588;12.148;2022-12-10T00:20:08;-0.10;99.90
11304;DHT22;5707;49.588;12.148;2022-12-10T00:22:34;-0.10;99.90
11304;DHT22;5707;49.588;12.148;2022-12-10T00:25:00;-0.20;99.90
11304;DHT22;5707;49.588;12.148;2022-12-10T00:27:26;-0.20;99.90
11304;DHT22;5707;49.588;12.148;2022-12-10T00:29:51;-0.30;99.90
11304;DHT22;5707;49.588;12.148;2022-12-10T00:32:17;-0.30;99.90
11304;DHT22;5707;49.588;12.148;2022-12-10T00:34:43;-0.30;99.90
11304;DHT22;5707;49.588;12.148;2022-12-10T00:37:08;-0.30;99.90
11304;DHT22;5707;49.588;12.148;2022-12-10T00:39:34;-0.40;99.90
11304;DHT22;5707;49.588;12.148;2022-12-10T00:41:59;-0.40;99.90
11304;DHT22;5707;49.588;12.148;2022-12-10T00:44:25;-0.50;99.90
11304;DHT22;5707;49.588;12.148;2022-12-10T00:46:51;-0.60;99.90
11304;DHT22;5707;49.588;12.148;2022-12-10T00:49:16;-0.70;99.90
11304;DHT22;5707;49.588;12.148;2022-12-10T00:51:42;-0.80;99.90
11304;DHT22;5707;49.588;12.148;2022-12-10T00:54:08;-0.90;99.90
11304;DHT22;5707;49.588;12.148;2022-12-10T00:56:34;-1.00;99.90
11304;DHT22;5707;49.588;12.148;2022-12-10T00:59:01;-1.00;99.90
11304;DHT22;5707;49.588;12.148;2022-12-10T01:01:33;-1.00;99.90
11304;DHT22;5707;49.588;12.148;2022-12-10T01:04:05;-1.00;99.90
11304;DHT22;5707;49.588;12.148;2022-12-10T01:06:48;-0.80;99.90
11304;DHT22;5707;49.588;12.148;2022-12-10T01:09:20;-0.80;99.90
11304;DHT22;5707;49.588;12.148;2022-12-10T01:11:48;-0.80;99.90
11304;DHT22;5707;49.588;12.148;2022-12-10T01:14:20;-0.80;99.90
11304;DHT22;5707;49.588;12.148;2022-12-10T01:16:46;-0.90;99.90
11304;DHT22;5707;49.588;12.148;2022-12-10T01:19:12;-1.10;99.90
11304;DHT22;5707;49.588;12.148;2022-12-10T01:21:37;-1.40;99.90
11304;DHT22;5707;49.588;12.148;2022-12-10T01:24:03;-1.70;99.90
11304;DHT22;5707;49.588;12.148;2022-12-10T01:26:31;-1.90;99.90
11304;DHT22;5707;49.588;12.148;2022-12-10T01:28:58;-2.00;99.90
11304;DHT22;5707;49.588;12.148;2022-12-10T01:31:27;-2.10;99.90
11304;DHT22;5707;49.588;12.148;2022-12-10T01:33:53;-2.20;99.90
11304;DHT22;5707;49.588;12.148;2022-12-10T01:36:27;-2.30;99.90
11304;DHT22;5707;49.588;12.148;2022-12-10T01:38:54;-2.20;99.90
11304;DHT22;5707;49.588;12.148;2022-12-10T01:41:23;-2.10;99.90
11304;DHT22;5707;49.588;12.148;2022-12-10T01:46:22;-1.90;99.90
11304;DHT22;5707;49.588;12.148;2022-12-10T01:48:49;-1.90;99.90
11304;DHT22;5707;49.588;12.148;2022-12-10T01:51:15;-1.90;99.90
11304;DHT22;5707;49.588;12.148;2022-12-10T01:53:42;-2.00;99.90
11304;DHT22;5707;49.588;12.148;2022-12-10T01:56:09;-2.10;99.90
11304;DHT22;5707;49.588;12.148;2022-12-10T01:58:35;-2.10;99.90
11304;DHT22;5707;49.588;12.148;2022-12-10T02:01:11;-2.20;99.90
11304;DHT22;5707;49.588;12.148;2022-12-10T02:03:48;-2.10;99.90
11304;DHT22;5707;49.588;12.148;2022-12-10T02:09:02;-2.20;99.90
11304;DHT22;5707;49.588;12.148;2022-12-10T02:11:37;-2.30;99.90
11304;DHT22;5707;49.588;12.148;2022-12-10T02:14:17;-2.30;99.90
11304;DHT22;5707;49.588;12.148;2022-12-10T02:16:50;-2.10;99.90
11304;DHT22;5707;49.588;12.148;2022-12-10T02:22:12;-1.80;99.90
11304;DHT22;5707;49.588;12.148;2022-12-10T02:24:39;-1.70;99.90
11304;DHT22;5707;49.588;12.148;2022-12-10T02:27:14;-1.60;99.90
11304;DHT22;5707;49.588;12.148;2022-12-10T02:29:43;-1.60;99.90
11304;DHT22;5707;49.588;12.148;2022-12-10T02:32:14;-1.60;99.90
11304;DHT22;5707;49.588;12.148;2022-12-10T02:34:56;-1.50;99.90
11304;DHT22;5707;49.588;12.148;2022-12-10T02:37:33;-1.50;99.90
11304;DHT22;5707;49.588;12.148;2022-12-10T02:40:08;-1.50;99.90
11304;DHT22;5707;49.588;12.148;2022-12-10T02:42:38;-1.40;99.90
11304;DHT22;5707;49.588;12.148;2022-12-10T02:45:06;-1.40;99.90
11304;DHT22;5707;49.588;12.148;2022-12-10T02:47:34;-1.30;99.90
11304;DHT22;5707;49.588;12.148;2022-12-10T02:50:00;-1.40;99.90
11304;DHT22;5707;49.588;12.148;2022-12-10T02:52:26;-1.30;99.90
11304;DHT22;5707;49.588;12.148;2022-12-10T02:54:52;-1.30;99.90
11304;DHT22;5707;49.588;12.148;2022-12-10T02:57:32;-1.30;99.90
11304;DHT22;5707;49.588;12.148;2022-12-10T03:00:13;-1.30;99.90
11304;DHT22;5707;49.588;12.148;2022-12-10T03:06:01;-1.30;99.90
11304;DHT22;5707;49.588;12.148;2022-12-10T03:11:29;-1.20;99.90
11304;DHT22;5707;49.588;12.148;2022-12-10T03:14:18;-1.10;99.90
11304;DHT22;5707;49.588;12.148;2022-12-10T03:16:49;-1.10;99.90
11304;DHT22;5707;49.588;12.148;2022-12-10T03:19:19;-1.10;99.90
11304;DHT22;5707;49.588;12.148;2022-12-10T03:21:47;-1.10;99.90
11304;DHT22;5707;49.588;12.148;2022-12-10T03:24:16;-1.10;99.90
11304;DHT22;5707;49.588;12.148;2022-12-10T03:26:45;-1.00;99.90
11304;DHT22;5707;49.588;12.148;2022-12-10T03:29:15;-1.00;99.90
11304;DHT22;5707;49.588;12.148;2022-12-10T03:31:43;-1.00;99.90
11304;DHT22;5707;49.588;12.148;2022-12-10T03:34:10;-0.90;99.90
11304;DHT22;5707;49.588;12.148;2022-12-10T03:36:36;-0.90;99.90
11304;DHT22;5707;49.588;12.148;2022-12-10T03:39:03;-0.90;99.90
11304;DHT22;5707;49.588;12.148;2022-12-10T03:41:30;-0.80;99.90
11304;DHT22;5707;49.588;12.148;2022-12-10T03:43:57;-0.80;99.90
11304;DHT22;5707;49.588;12.148;2022-12-10T03:46:25;-0.70;99.90
11304;DHT22;5707;49.588;12.148;2022-12-10T03:48:52;-0.70;99.90
11304;DHT22;5707;49.588;12.148;2022-12-10T03:51:18;-0.70;99.90
11304;DHT22;5707;49.588;12.148;2022-12-10T03:53:44;-0.70;99.90
11304;DHT22;5707;49.588;12.148;2022-12-10T03:56:10;-0.60;99.90
11304;DHT22;5707;49.588;12.148;2022-12-10T03:58:36;-0.70;99.90
11304;DHT22;5707;49.588;12.148;2022-12-10T04:01:03;-0.60;99.90
11304;DHT22;5707;49.588;12.148;2022-12-10T04:03:29;-0.60;99.90
11304;DHT22;5707;49.588;12.148;2022-12-10T04:06:01;-0.70;99.90
11304;DHT22;5707;49.588;12.148;2022-12-10T04:08:27;-0.70;99.90
11304;DHT22;5707;49.588;12.148;2022-12-10T04:10:52;-0.80;99.90
11304;DHT22;5707;49.588;12.148;2022-12-10T04:13:18;-0.90;99.90
11304;DHT22;5707;49.588;12.148;2022-12-10T04:16:02;-0.90;99.90
11304;DHT22;5707;49.588;12.148;2022-12-10T04:18:46;-0.90;99.90
11304;DHT22;5707;49.588;12.148;2022-12-10T04:21:12;-0.90;99.90
11304;DHT22;5707;49.588;12.148;2022-12-10T04:23:56;-0.90;99.90
11304;DHT22;5707;49.588;12.148;2022-12-10T04:26:40;-0.90;99.90
11304;DHT22;5707;49.588;12.148;2022-12-10T04:29:23;-0.90;99.90
11304;DHT22;5707;49.588;12.148;2022-12-10T04:31:49;-0.90;99.90
11304;DHT22;5707;49.588;12.148;2022-12-10T04:34:15;-0.90;99.90
11304;DHT22;5707;49.588;12.148;2022-12-10T04:36:40;-0.90;99.90
11304;DHT22;5707;49.588;12.148;2022-12-10T04:39:06;-0.90;99.90
11304;DHT22;5707;49.588;12.148;2022-12-10T04:41:32;-0.90;99.90
11304;DHT22;5707;49.588;12.148;2022-12-10T04:43:58;-0.90;99.90
11304;DHT22;5707;49.588;12.148;2022-12-10T04:46:23;-0.90;99.90
11304;DHT22;5707;49.588;12.148;2022-12-10T04:48:49;-0.90;99.90
11304;DHT22;5707;49.588;12.148;2022-12-10T04:51:15;-0.90;99.90
11304;DHT22;5707;49.588;12.148;2022-12-10T04:53:40;-0.90;99.90
11304;DHT22;5707;49.588;12.148;2022-12-10T04:56:06;-0.80;99.90
11304;DHT22;5707;49.588;12.148;2022-12-10T04:58:33;-0.80;99.90
11304;DHT22;5707;49.588;12.148;2022-12-10T05:01:06;-0.80;99.90
11304;DHT22;5707;49.588;12.148;2022-12-10T05:03:33;-0.70;99.90
11304;DHT22;5707;49.588;12.148;2022-12-10T05:06:03;-0.70;99.90
11304;DHT22;5707;49.588;12.148;2022-12-10T05:08:29;-0.70;99.90
11304;DHT22;5707;49.588;12.148;2022-12-10T05:10:55;-0.70;99.90
11304;DHT22;5707;49.588;12.148;2022-12-10T05:13:21;-0.80;99.90
11304;DHT22;5707;49.588;12.148;2022-12-10T05:15:46;-0.80;99.90
11304;DHT22;5707;49.588;12.148;2022-12-10T05:18:12;-0.80;99.90
11304;DHT22;5707;49.588;12.148;2022-12-10T05:20:37;-0.80;99.90
11304;DHT22;5707;49.588;12.148;2022-12-10T05:23:03;-0.70;99.90
11304;DHT22;5707;49.588;12.148;2022-12-10T05:25:47;-0.70;99.90
11304;DHT22;5707;49.588;12.148;2022-12-10T05:28:20;-0.70;99.90
11304;DHT22;5707;49.588;12.148;2022-12-10T05:30:46;-0.70;99.90
11304;DHT22;5707;49.588;12.148;2022-12-10T05:33:11;-0.70;99.90
11304;DHT22;5707;49.588;12.148;2022-12-10T05:35:37;-0.70;99.90
11304;DHT22;5707;49.588;12.148;2022-12-10T05:38:03;-0.70;99.90
11304;DHT22;5707;49.588;12.148;2022-12-10T05:40:29;-0.70;99.90
11304;DHT22;5707;49.588;12.148;2022-12-10T05:42:54;-0.70;99.90
11304;DHT22;5707;49.588;12.148;2022-12-10T05:45:20;-0.60;99.90
11304;DHT22;5707;49.588;12.148;2022-12-10T05:47:45;-0.60;99.90
11304;DHT22;5707;49.588;12.148;2022-12-10T05:50:11;-0.60;99.90
11304;DHT22;5707;49.588;12.148;2022-12-10T05:52:37;-0.60;99.90
11304;DHT22;5707;49.588;12.148;2022-12-10T05:55:02;-0.50;99.90
11304;DHT22;5707;49.588;12.148;2022-12-10T05:57:28;-0.50;99.90
11304;DHT22;5707;49.588;12.148;2022-12-10T05:59:54;-0.50;99.90
11304;DHT22;5707;49.588;12.148;2022-12-10T06:02:19;-0.50;99.90
11304;DHT22;5707;49.588;12.148;2022-12-10T06:04:45;-0.50;99.90
11304;DHT22;5707;49.588;12.148;2022-12-10T06:07:10;-0.40;99.90
11304;DHT22;5707;49.588;12.148;2022-12-10T06:09:36;-0.40;99.90
11304;DHT22;5707;49.588;12.148;2022-12-10T06:12:02;-0.40;99.90
11304;DHT22;5707;49.588;12.148;2022-12-10T06:14:27;-0.30;99.90
11304;DHT22;5707;49.588;12.148;2022-12-10T06:16:53;-0.40;99.90
11304;DHT22;5707;49.588;12.148;2022-12-10T06:19:19;-0.30;99.90
11304;DHT22;5707;49.588;12.148;2022-12-10T06:21:44;-0.30;99.90
11304;DHT22;5707;49.588;12.148;2022-12-10T06:24:10;-0.30;99.90
11304;DHT22;5707;49.588;12.148;2022-12-10T06:26:35;-0.40;99.90
11304;DHT22;5707;49.588;12.148;2022-12-10T06:29:01;-0.30;99.90
11304;DHT22;5707;49.588;12.148;2022-12-10T06:31:27;-0.40;99.90
11304;DHT22;5707;49.588;12.148;2022-12-10T06:33:53;-0.40;99.90
11304;DHT22;5707;49.588;12.148;2022-12-10T06:36:19;-0.40;99.90
11304;DHT22;5707;49.588;12.148;2022-12-10T06:38:45;-0.40;99.90
11304;DHT22;5707;49.588;12.148;2022-12-10T06:41:14;-0.40;99.90
11304;DHT22;5707;49.588;12.148;2022-12-10T06:43:40;-0.40;99.90
11304;DHT22;5707;49.588;12.148;2022-12-10T06:46:15;-0.40;99.90
11304;DHT22;5707;49.588;12.148;2022-12-10T06:48:41;-0.40;99.90
11304;DHT22;5707;49.588;12.148;2022-12-10T06:51:08;-0.40;99.90
11304;DHT22;5707;49.588;12.148;2022-12-10T06:53:36;-0.30;99.90
11304;DHT22;5707;49.588;12.148;2022-12-10T06:56:02;-0.30;99.90
11304;DHT22;5707;49.588;12.148;2022-12-10T06:58:29;-0.30;99.90
11304;DHT22;5707;49.588;12.148;2022-12-10T07:01:19;-0.30;99.90
11304;DHT22;5707;49.588;12.148;2022-12-10T07:03:48;-0.30;99.90
11304;DHT22;5707;49.588;12.148;2022-12-10T07:06:14;-0.30;99.90
11304;DHT22;5707;49.588;12.148;2022-12-10T07:08:40;-0.20;99.90
11304;DHT22;5707;49.588;12.148;2022-12-10T07:11:08;-0.20;99.90
11304;DHT22;5707;49.588;12.148;2022-12-10T07:13:34;-0.20;99.90
11304;DHT22;5707;49.588;12.148;2022-12-10T07:16:00;-0.20;99.90
11304;DHT22;5707;49.588;12.148;2022-12-10T07:18:26;-0.10;99.90
11304;DHT22;5707;49.588;12.148;2022-12-10T07:20:52;-0.20;99.90
11304;DHT22;5707;49.588;12.148;2022-12-10T07:23:18;-0.10;99.90
11304;DHT22;5707;49.588;12.148;2022-12-10T07:25:44;-0.10;99.90
11304;DHT22;5707;49.588;12.148;2022-12-10T07:28:10;-0.10;99.90
11304;DHT22;5707;49.588;12.148;2022-12-10T07:30:35;0.00;99.90
11304;DHT22;5707;49.588;12.148;2022-12-10T07:33:01;0.00;99.90
11304;DHT22;5707;49.588;12.148;2022-12-10T07:35:27;0.00;99.90
11304;DHT22;5707;49.588;12.148;2022-12-10T07:37:52;0.00;99.90
11304;DHT22;5707;49.588;12.148;2022-12-10T07:40:18;0.10;99.90
11304;DHT22;5707;49.588;12.148;2022-12-10T07:42:44;0.20;99.90
11304;DHT22;5707;49.588;12.148;2022-12-10T07:45:10;0.30;99.90
11304;DHT22;5707;49.588;12.148;2022-12-10T07:47:37;0.30;99.90
11304;DHT22;5707;49.588;12.148;2022-12-10T07:50:03;0.30;99.90
11304;DHT22;5707;49.588;12.148;2022-12-10T07:52:29;0.40;99.90
11304;DHT22;5707;49.588;12.148;2022-12-10T07:54:54;0.50;99.90
11304;DHT22;5707;49.588;12.148;2022-12-10T07:57:20;0.60;99.90
11304;DHT22;5707;49.588;12.148;2022-12-10T07:59:46;0.60;99.90
11304;DHT22;5707;49.588;12.148;2022-12-10T08:02:12;0.60;99.90
11304;DHT22;5707;49.588;12.148;2022-12-10T08:04:38;0.60;99.90
11304;DHT22;5707;49.588;12.148;2022-12-10T08:07:03;0.60;99.90
11304;DHT22;5707;49.588;12.148;2022-12-10T08:09:29;0.70;99.90
11304;DHT22;5707;49.588;12.148;2022-12-10T08:11:55;0.80;99.90
11304;DHT22;5707;49.588;12.148;2022-12-10T08:14:20;0.90;99.90
11304;DHT22;5707;49.588;12.148;2022-12-10T08:16:46;0.90;99.90
11304;DHT22;5707;49.588;12.148;2022-12-10T08:19:11;1.00;99.90
11304;DHT22;5707;49.588;12.148;2022-12-10T08:21:37;1.00;99.90
11304;DHT22;5707;49.588;12.148;2022-12-10T08:24:03;1.10;99.90
11304;DHT22;5707;49.588;12.148;2022-12-10T08:26:31;1.10;99.90
11304;DHT22;5707;49.588;12.148;2022-12-10T08:28:58;1.20;99.90
11304;DHT22;5707;49.588;12.148;2022-12-10T08:31:25;1.20;99.90
11304;DHT22;5707;49.588;12.148;2022-12-10T08:33:51;1.30;99.90
11304;DHT22;5707;49.588;12.148;2022-12-10T08:36:18;1.40;99.90
11304;DHT22;5707;49.588;12.148;2022-12-10T08:38:44;1.40;99.90
11304;DHT22;5707;49.588;12.148;2022-12-10T08:41:19;1.40;99.90
11304;DHT22;5707;49.588;12.148;2022-12-10T08:43:45;1.40;99.90
11304;DHT22;5707;49.588;12.148;2022-12-10T08:46:12;1.50;99.90
11304;DHT22;5707;49.588;12.148;2022-12-10T08:48:39;1.50;99.90
11304;DHT22;5707;49.588;12.148;2022-12-10T08:51:06;1.60;99.90
11304;DHT22;5707;49.588;12.148;2022-12-10T08:53:32;1.70;99.90
11304;DHT22;5707;49.588;12.148;2022-12-10T08:55:58;1.70;99.90
11304;DHT22;5707;49.588;12.148;2022-12-10T08:58:24;1.70;99.90
11304;DHT22;5707;49.588;12.148;2022-12-10T09:00:50;1.70;99.90
11304;DHT22;5707;49.588;12.148;2022-12-10T09:03:16;1.70;99.90
11304;DHT22;5707;49.588;12.148;2022-12-10T09:05:42;1.70;99.90
11304;DHT22;5707;49.588;12.148;2022-12-10T09:08:08;1.70;99.90
11304;DHT22;5707;49.588;12.148;2022-12-10T09:10:36;1.80;99.90
11304;DHT22;5707;49.588;12.148;2022-12-10T09:13:02;1.70;99.90
11304;DHT22;5707;49.588;12.148;2022-12-10T09:15:28;1.70;99.90
11304;DHT22;5707;49.588;12.148;2022-12-10T09:17:53;1.80;99.90
11304;DHT22;5707;49.588;12.148;2022-12-10T09:20:19;1.80;99.90
11304;DHT22;5707;49.588;12.148;2022-12-10T09:22:44;1.80;99.90
11304;DHT22;5707;49.588;12.148;2022-12-10T09:25:10;1.90;99.90
11304;DHT22;5707;49.588;12.148;2022-12-10T09:27:36;1.90;99.90
11304;DHT22;5707;49.588;12.148;2022-12-10T09:30:04;1.90;99.90
11304;DHT22;5707;49.588;12.148;2022-12-10T09:32:29;1.90;99.90
11304;DHT22;5707;49.588;12.148;2022-12-10T09:34:55;2.00;99.90
11304;DHT22;5707;49.588;12.148;2022-12-10T09:37:21;1.90;99.90
11304;DHT22;5707;49.588;12.148;2022-12-10T09:39:46;1.90;99.90
11304;DHT22;5707;49.588;12.148;2022-12-10T09:44:46;1.80;99.90
11304;DHT22;5707;49.588;12.148;2022-12-10T09:47:15;1.80;99.90
11304;DHT22;5707;49.588;12.148;2022-12-10T09:52:18;1.80;99.90
11304;DHT22;5707;49.588;12.148;2022-12-10T09:57:24;1.90;99.90
11304;DHT22;5707;49.588;12.148;2022-12-10T09:59:52;1.90;99.90
11304;DHT22;5707;49.588;12.148;2022-12-10T10:02:28;2.00;99.90
11304;DHT22;5707;49.588;12.148;2022-12-10T10:07:36;2.20;99.90
11304;DHT22;5707;49.588;12.148;2022-12-10T10:10:06;2.10;99.90
11304;DHT22;5707;49.588;12.148;2022-12-10T10:12:34;2.10;99.90
11304;DHT22;5707;49.588;12.148;2022-12-10T10:15:10;2.10;99.90
11304;DHT22;5707;49.588;12.148;2022-12-10T10:17:37;2.20;99.90
11304;DHT22;5707;49.588;12.148;2022-12-10T10:20:05;2.20;99.90
11304;DHT22;5707;49.588;12.148;2022-12-10T10:22:31;2.20;99.90
11304;DHT22;5707;49.588;12.148;2022-12-10T10:24:57;2.30;99.90
11304;DHT22;5707;49.588;12.148;2022-12-10T10:27:26;2.30;99.90
11304;DHT22;5707;49.588;12.148;2022-12-10T10:29:54;2.30;99.90
11304;DHT22;5707;49.588;12.148;2022-12-10T10:34:53;2.40;99.90
11304;DHT22;5707;49.588;12.148;2022-12-10T10:37:27;2.50;99.90
11304;DHT22;5707;49.588;12.148;2022-12-10T10:39:56;2.50;99.90
11304;DHT22;5707;49.588;12.148;2022-12-10T10:42:37;2.50;99.90
11304;DHT22;5707;49.588;12.148;2022-12-10T10:45:10;2.50;99.90
11304;DHT22;5707;49.588;12.148;2022-12-10T10:48:08;2.50;99.90
11304;DHT22;5707;49.588;12.148;2022-12-10T10:50:43;2.50;99.90
11304;DHT22;5707;49.588;12.148;2022-12-10T10:56:13;2.40;99.90
11304;DHT22;5707;49.588;12.148;2022-12-10T11:01:52;2.30;99.90
11304;DHT22;5707;49.588;12.148;2022-12-10T11:06:51;2.20;99.90
11304;DHT22;5707;49.588;12.148;2022-12-10T11:09:25;2.20;99.90
11304;DHT22;5707;49.588;12.148;2022-12-10T11:12:06;2.10;99.90
11304;DHT22;5707;49.588;12.148;2022-12-10T11:14:46;2.10;99.90
11304;DHT22;5707;49.588;12.148;2022-12-10T11:19:53;2.20;99.90
11304;DHT22;5707;49.588;12.148;2022-12-10T11:22:30;2.20;99.90
11304;DHT22;5707;49.588;12.148;2022-12-10T11:24:57;2.20;99.90
11304;DHT22;5707;49.588;12.148;2022-12-10T11:30:22;2.20;99.90
11304;DHT22;5707;49.588;12.148;2022-12-10T11:38:30;2.40;99.90
11304;DHT22;5707;49.588;12.148;2022-12-10T11:54:52;2.60;99.90
11304;DHT22;5707;49.588;12.148;2022-12-10T11:58:00;2.30;99.90
11304;DHT22;5707;49.588;12.148;2022-12-10T12:00:57;2.10;99.90
11304;DHT22;5707;49.588;12.148;2022-12-10T12:06:30;1.90;99.90
11304;DHT22;5707;49.588;12.148;2022-12-10T12:14:31;1.60;99.90
11304;DHT22;5707;49.588;12.148;2022-12-10T12:19:50;1.60;99.90
11304;DHT22;5707;49.588;12.148;2022-12-10T12:22:37;1.60;99.90
11304;DHT22;5707;49.588;12.148;2022-12-10T12:25:17;1.50;99.90
11304;DHT22;5707;49.588;12.148;2022-12-10T12:27:50;1.50;99.90
11304;DHT22;5707;49.588;12.148;2022-12-10T12:30:19;1.50;99.90
11304;DHT22;5707;49.588;12.148;2022-12-10T12:35:21;1.60;99.90
11304;DHT22;5707;49.588;12.148;2022-12-10T12:37:58;1.50;99.90
11304;DHT22;5707;49.588;12.148;2022-12-10T12:42:58;1.40;99.90
11304;DHT22;5707;49.588;12.148;2022-12-10T12:45:43;1.40;99.90
11304;DHT22;5707;49.588;12.148;2022-12-10T12:48:38;1.30;99.90
11304;DHT22;5707;49.588;12.148;2022-12-10T12:51:13;1.30;99.90
11304;DHT22;5707;49.588;12.148;2022-12-10T12:53:41;1.30;99.90
11304;DHT22;5707;49.588;12.148;2022-12-10T13:03:54;1.30;99.90
11304;DHT22;5707;49.588;12.148;2022-12-10T13:09:15;1.30;99.90
11304;DHT22;5707;49.588;12.148;2022-12-10T13:14:35;1.40;99.90
11304;DHT22;5707;49.588;12.148;2022-12-10T13:17:25;1.40;99.90
11304;DHT22;5707;49.588;12.148;2022-12-10T13:19:53;1.40;99.90
11304;DHT22;5707;49.588;12.148;2022-12-10T13:25:17;1.40;99.90
11304;DHT22;5707;49.588;12.148;2022-12-10T13:27:57;1.30;99.90
11304;DHT22;5707;49.588;12.148;2022-12-10T13:30:41;1.30;99.90
11304;DHT22;5707;49.588;12.148;2022-12-10T13:33:18;1.30;99.90
11304;DHT22;5707;49.588;12.148;2022-12-10T13:35:59;1.30;99.90
11304;DHT22;5707;49.588;12.148;2022-12-10T13:38:26;1.30;99.90
11304;DHT22;5707;49.588;12.148;2022-12-10T13:41:04;1.30;99.90
11304;DHT22;5707;49.588;12.148;2022-12-10T13:44:00;1.30;99.90
11304;DHT22;5707;49.588;12.148;2022-12-10T13:52:32;1.20;99.90
11304;DHT22;5707;49.588;12.148;2022-12-10T14:08:18;0.90;99.90
11304;DHT22;5707;49.588;12.148;2022-12-10T14:10:44;0.90;99.90
11304;DHT22;5707;49.588;12.148;2022-12-10T14:13:13;0.90;99.90
11304;DHT22;5707;49.588;12.148;2022-12-10T14:15:41;0.90;99.90
11304;DHT22;5707;49.588;12.148;2022-12-10T14:18:13;0.90;99.90
11304;DHT22;5707;49.588;12.148;2022-12-10T14:20:47;0.90;99.90
11304;DHT22;5707;49.588;12.148;2022-12-10T14:23:26;0.80;99.90
11304;DHT22;5707;49.588;12.148;2022-12-10T14:26:20;0.80;99.90
11304;DHT22;5707;49.588;12.148;2022-12-10T14:28:58;0.80;99.90
11304;DHT22;5707;49.588;12.148;2022-12-10T14:31:31;0.80;99.90
11304;DHT22;5707;49.588;12.148;2022-12-10T14:34:01;0.70;99.90
11304;DHT22;5707;49.588;12.148;2022-12-10T14:36:30;0.70;99.90
11304;DHT22;5707;49.588;12.148;2022-12-10T14:38:58;0.70;99.90
11304;DHT22;5707;49.588;12.148;2022-12-10T14:41:24;0.70;99.90
11304;DHT22;5707;49.588;12.148;2022-12-10T14:43:51;0.70;99.90
11304;DHT22;5707;49.588;12.148;2022-12-10T14:46:22;0.70;99.90
11304;DHT22;5707;49.588;12.148;2022-12-10T14:48:50;0.60;99.90
11304;DHT22;5707;49.588;12.148;2022-12-10T14:51:20;0.60;99.90
11304;DHT22;5707;49.588;12.148;2022-12-10T14:53:47;0.60;99.90
11304;DHT22;5707;49.588;12.148;2022-12-10T14:56:22;0.60;99.90
11304;DHT22;5707;49.588;12.148;2022-12-10T14:59:16;0.60;99.90
11304;DHT22;5707;49.588;12.148;2022-12-10T15:01:46;0.70;99.90
11304;DHT22;5707;49.588;12.148;2022-12-10T15:04:15;0.70;99.90
11304;DHT22;5707;49.588;12.148;2022-12-10T15:06:42;0.80;99.90
11304;DHT22;5707;49.588;12.148;2022-12-10T15:09:26;0.80;99.90
11304;DHT22;5707;49.588;12.148;2022-12-10T15:11:56;0.70;99.90
11304;DHT22;5707;49.588;12.148;2022-12-10T15:14:23;0.70;99.90
11304;DHT22;5707;49.588;12.148;2022-12-10T15:16:50;0.80;99.90
11304;DHT22;5707;49.588;12.148;2022-12-10T15:19:31;0.80;99.90
11304;DHT22;5707;49.588;12.148;2022-12-10T15:22:18;0.80;99.90
11304;DHT22;5707;49.588;12.148;2022-12-10T15:24:44;0.80;99.90
11304;DHT22;5707;49.588;12.148;2022-12-10T15:27:24;0.70;99.90
11304;DHT22;5707;49.588;12.148;2022-12-10T15:29:51;0.70;99.90
11304;DHT22;5707;49.588;12.148;2022-12-10T15:32:24;0.70;99.90
11304;DHT22;5707;49.588;12.148;2022-12-10T15:34:59;0.70;99.90
11304;DHT22;5707;49.588;12.148;2022-12-10T15:37:37;0.70;99.90
11304;DHT22;5707;49.588;12.148;2022-12-10T15:40:06;0.60;99.90
11304;DHT22;5707;49.588;12.148;2022-12-10T15:42:41;0.50;99.90
11304;DHT22;5707;49.588;12.148;2022-12-10T15:45:26;0.50;99.90
11304;DHT22;5707;49.588;12.148;2022-12-10T15:47:56;0.50;99.90
11304;DHT22;5707;49.588;12.148;2022-12-10T15:50:23;0.40;99.90
11304;DHT22;5707;49.588;12.148;2022-12-10T15:52:48;0.30;99.90
11304;DHT22;5707;49.588;12.148;2022-12-10T15:55:14;0.30;99.90
11304;DHT22;5707;49.588;12.148;2022-12-10T15:57:42;0.30;99.90
11304;DHT22;5707;49.588;12.148;2022-12-10T16:00:23;0.20;99.90
11304;DHT22;5707;49.588;12.148;2022-12-10T16:03:03;0.20;99.90
11304;DHT22;5707;49.588;12.148;2022-12-10T16:05:34;0.20;99.90
11304;DHT22;5707;49.588;12.148;2022-12-10T16:08:22;0.20;99.90
11304;DHT22;5707;49.588;12.148;2022-12-10T16:10:49;0.20;99.90
11304;DHT22;5707;49.588;12.148;2022-12-10T16:13:21;0.20;99.90
11304;DHT22;5707;49.588;12.148;2022-12-10T16:15:54;0.10;99.90
11304;DHT22;5707;49.588;12.148;2022-12-10T16:18:22;0.10;99.90
11304;DHT22;5707;49.588;12.148;2022-12-10T16:20:48;0.10;99.90
11304;DHT22;5707;49.588;12.148;2022-12-10T16:23:14;0.00;99.90
11304;DHT22;5707;49.588;12.148;2022-12-10T16:25:40;0.00;99.90
11304;DHT22;5707;49.588;12.148;2022-12-10T16:28:19;0.00;99.90
11304;DHT22;5707;49.588;12.148;2022-12-10T16:30:52;0.00;99.90
11304;DHT22;5707;49.588;12.148;2022-12-10T16:33:20;-0.10;99.90
11304;DHT22;5707;49.588;12.148;2022-12-10T16:35:48;-0.10;99.90
11304;DHT22;5707;49.588;12.148;2022-12-10T16:38:14;-0.10;99.90
11304;DHT22;5707;49.588;12.148;2022-12-10T16:40:41;-0.10;99.90
11304;DHT22;5707;49.588;12.148;2022-12-10T16:43:22;-0.10;99.90
11304;DHT22;5707;49.588;12.148;2022-12-10T16:45:49;-0.10;99.90
11304;DHT22;5707;49.588;12.148;2022-12-10T16:48:16;-0.20;99.90
11304;DHT22;5707;49.588;12.148;2022-12-10T16:50:42;-0.20;99.90
11304;DHT22;5707;49.588;12.148;2022-12-10T16:53:25;-0.20;99.90
11304;DHT22;5707;49.588;12.148;2022-12-10T16:55:53;-0.30;99.90
11304;DHT22;5707;49.588;12.148;2022-12-10T16:58:19;-0.30;99.90
11304;DHT22;5707;49.588;12.148;2022-12-10T17:00:47;-0.30;99.90
11304;DHT22;5707;49.588;12.148;2022-12-10T17:03:15;-0.30;99.90
11304;DHT22;5707;49.588;12.148;2022-12-10T17:05:54;-0.30;99.90
11304;DHT22;5707;49.588;12.148;2022-12-10T17:08:21;-0.40;99.90
11304;DHT22;5707;49.588;12.148;2022-12-10T17:10:48;-0.40;99.90
11304;DHT22;5707;49.588;12.148;2022-12-10T17:13:33;-0.40;99.90
11304;DHT22;5707;49.588;12.148;2022-12-10T17:15:59;-0.40;99.90
11304;DHT22;5707;49.588;12.148;2022-12-10T17:18:26;-0.40;99.90
11304;DHT22;5707;49.588;12.148;2022-12-10T17:20:52;-0.50;99.90
11304;DHT22;5707;49.588;12.148;2022-12-10T17:23:18;-0.60;99.90
11304;DHT22;5707;49.588;12.148;2022-12-10T17:25:44;-0.60;99.90
11304;DHT22;5707;49.588;12.148;2022-12-10T17:28:15;-0.60;99.90
11304;DHT22;5707;49.588;12.148;2022-12-10T17:30:41;-0.70;99.90
11304;DHT22;5707;49.588;12.148;2022-12-10T17:33:22;-0.70;99.90
11304;DHT22;5707;49.588;12.148;2022-12-10T17:35:50;-0.70;99.90
11304;DHT22;5707;49.588;12.148;2022-12-10T17:38:22;-0.80;99.90
11304;DHT22;5707;49.588;12.148;2022-12-10T17:40:48;-0.80;99.90
11304;DHT22;5707;49.588;12.148;2022-12-10T17:43:13;-0.80;99.90
11304;DHT22;5707;49.588;12.148;2022-12-10T17:45:40;-0.80;99.90